Terminal Aerodrome Forecast
Issued by NWS

Home | Current Version | Previous Version | Text Only | Print | Product List | Glossary On
Versions: 1 2 3 4 5 6 7 8 9 10 11 12 13 14 15 16 17 18 19 20 21 22 23 24 25 26
000
FTUS41 KPBZ 050000 AAA
TAFMGW
TAF AMD
KMGW 050038Z 0501/0524 33005KT 1SM -SN OVC003
     FM050200 33007KT 2SM -SN SCT004 OVC008
      TEMPO 0502/0504 1SM -SN OVC004
     FM050900 31008KT 4SM -SN OVC015
     FM051400 34007KT P6SM BKN025
     FM052300 32005KT P6SM SKC=

USA.gov is the U.S. government's official web portal to all federal, state and local government web resources and services.